createdAt,value
2023-02-23T00:00:43.612Z,22.58
2023-02-23T00:03:10.381Z,23.64
2023-02-23T00:05:37.112Z,22.94
2023-02-23T00:08:03.900Z,22.54
2023-02-23T00:10:30.644Z,23.03
2023-02-23T00:13:00.490Z,24.36
2023-02-23T00:15:27.696Z,23.16
2023-02-23T00:17:54.807Z,23.25
2023-02-23T00:20:21.482Z,22.79
2023-02-23T00:22:48.118Z,21.75
2023-02-23T00:25:14.788Z,22.44
2023-02-23T00:27:41.433Z,25.00
2023-02-23T00:30:08.832Z,23.77
2023-02-23T00:32:35.552Z,23.21
2023-02-23T00:35:02.272Z,22.90
2023-02-23T00:37:28.953Z,22.93
2023-02-23T00:39:56.378Z,21.80
2023-02-23T00:42:23.830Z,23.39
2023-02-23T00:44:50.624Z,24.18
2023-02-23T00:47:17.308Z,24.76
2023-02-23T00:49:43.991Z,27.85
2023-02-23T00:52:11.258Z,30.40
2023-02-23T00:54:37.902Z,29.28
2023-02-23T00:57:04.575Z,27.91
2023-02-23T00:59:31.237Z,27.22
2023-02-23T01:01:57.919Z,27.31
2023-02-23T01:04:24.626Z,27.75
2023-02-23T01:06:53.441Z,28.90
2023-02-23T01:09:20.090Z,28.43
2023-02-23T01:11:47.056Z,26.42
2023-02-23T01:14:13.808Z,25.74
2023-02-23T01:16:40.447Z,26.29
2023-02-23T01:19:07.115Z,26.03
2023-02-23T01:21:37.720Z,27.03
2023-02-23T01:24:04.417Z,29.55
2023-02-23T01:26:32.826Z,30.21
2023-02-23T01:29:01.842Z,29.92
2023-02-23T01:31:29.774Z,30.92
2023-02-23T01:33:57.701Z,30.65
2023-02-23T01:36:24.491Z,31.66
2023-02-23T01:38:51.296Z,30.01
2023-02-23T01:41:18.314Z,30.30
2023-02-23T01:44:08.841Z,29.39
2023-02-23T01:46:39.862Z,28.35
2023-02-23T01:49:10.655Z,26.77
2023-02-23T01:51:40.270Z,25.23
2023-02-23T01:54:15.814Z,25.48
2023-02-23T01:56:44.316Z,24.51
2023-02-23T01:59:12.324Z,24.05
2023-02-23T02:01:39.504Z,23.47
2023-02-23T02:04:06.265Z,23.08
2023-02-23T02:06:34.008Z,22.58
2023-02-23T02:09:03.263Z,21.60
2023-02-23T02:11:29.940Z,21.93
2023-02-23T02:13:59.239Z,21.80
2023-02-23T02:16:43.800Z,22.72
2023-02-23T02:19:19.325Z,22.66
2023-02-23T02:22:12.339Z,23.21
2023-02-23T02:24:48.067Z,24.09
2023-02-23T02:27:36.164Z,23.60
2023-02-23T02:30:48.191Z,24.53
2023-02-23T02:33:45.342Z,24.74
2023-02-23T02:36:41.844Z,25.60
2023-02-23T02:39:15.130Z,25.57
2023-02-23T02:42:10.902Z,25.54
2023-02-23T02:45:01.637Z,26.55
2023-02-23T02:47:38.984Z,25.52
2023-02-23T02:50:10.159Z,26.09
2023-02-23T02:52:39.798Z,25.40
2023-02-23T02:55:08.102Z,24.11
2023-02-23T02:57:34.832Z,23.20
2023-02-23T03:00:01.498Z,23.57
2023-02-23T03:02:28.155Z,23.76
2023-02-23T03:04:54.853Z,22.83
2023-02-23T03:07:25.655Z,22.56
2023-02-23T03:10:33.448Z,23.94
2023-02-23T03:13:22.110Z,24.21
2023-02-23T03:16:09.839Z,23.80
2023-02-23T03:18:55.171Z,22.47
2023-02-23T03:21:26.027Z,22.97
2023-02-23T03:24:14.458Z,22.67
2023-02-23T03:26:46.018Z,23.64
2023-02-23T03:29:25.319Z,24.41
2023-02-23T03:32:11.457Z,23.68
2023-02-23T03:34:42.997Z,24.99
2023-02-23T03:37:16.873Z,24.22
2023-02-23T03:39:46.447Z,24.18
2023-02-23T03:42:16.231Z,23.59
2023-02-23T03:44:44.234Z,23.33
2023-02-23T03:47:10.903Z,23.99
2023-02-23T03:49:37.563Z,24.42
2023-02-23T03:52:07.385Z,23.48
2023-02-23T03:54:36.569Z,23.46
2023-02-23T03:57:04.699Z,23.84
2023-02-23T03:59:34.719Z,25.14
2023-02-23T04:02:01.461Z,23.83
2023-02-23T04:04:28.162Z,24.49
2023-02-23T04:06:56.147Z,24.05
2023-02-23T04:09:22.863Z,23.77
2023-02-23T04:12:39.892Z,22.50
2023-02-23T04:15:21.176Z,21.91
2023-02-23T04:17:47.819Z,22.06
2023-02-23T04:20:14.457Z,22.77
2023-02-23T04:22:41.137Z,21.83
2023-02-23T04:25:07.981Z,22.24
2023-02-23T04:27:37.061Z,22.42
2023-02-23T04:30:05.043Z,22.10
2023-02-23T04:32:31.872Z,20.62
2023-02-23T04:34:58.623Z,21.56
2023-02-23T04:37:25.297Z,21.35
2023-02-23T04:39:51.954Z,22.56
2023-02-23T04:42:18.686Z,22.16
2023-02-23T04:44:45.502Z,22.20
2023-02-23T04:47:12.507Z,23.74
2023-02-23T04:49:39.275Z,25.43
2023-02-23T04:52:05.943Z,26.28
2023-02-23T04:54:32.638Z,26.67
2023-02-23T04:56:59.278Z,27.03
2023-02-23T04:59:25.940Z,27.22
2023-02-23T05:01:52.629Z,27.88
2023-02-23T05:04:19.266Z,27.98
2023-02-23T05:06:45.928Z,26.35
2023-02-23T05:09:12.609Z,25.33
2023-02-23T05:11:39.247Z,26.22
2023-02-23T05:14:05.905Z,25.61
2023-02-23T05:16:32.623Z,24.20
2023-02-23T05:18:59.314Z,24.35
2023-02-23T05:21:26.498Z,24.37
2023-02-23T05:23:53.647Z,24.24
2023-02-23T05:26:20.325Z,24.81
2023-02-23T05:28:46.989Z,24.39
2023-02-23T05:31:13.693Z,24.36
2023-02-23T05:33:40.460Z,25.05
2023-02-23T05:36:07.601Z,24.85
2023-02-23T05:38:34.287Z,24.19
2023-02-23T05:41:05.851Z,23.44
2023-02-23T05:43:33.466Z,23.56
2023-02-23T05:46:01.076Z,23.59
2023-02-23T05:48:29.653Z,23.28
2023-02-23T05:50:56.443Z,22.82
2023-02-23T05:53:23.258Z,21.77
2023-02-23T05:55:49.901Z,21.36
2023-02-23T05:58:17.060Z,20.85
2023-02-23T06:00:44.622Z,20.92
2023-02-23T06:03:13.197Z,21.72
2023-02-23T06:05:40.818Z,21.40
2023-02-23T06:08:08.458Z,20.82
2023-02-23T06:10:36.007Z,22.03
2023-02-23T06:13:03.581Z,20.73
2023-02-23T06:15:31.262Z,19.96
2023-02-23T06:17:58.809Z,21.69
2023-02-23T06:20:26.388Z,22.52
2023-02-23T06:22:53.063Z,21.69
2023-02-23T06:25:19.797Z,21.60
2023-02-23T06:27:46.452Z,20.80
2023-02-23T06:30:13.487Z,20.16
2023-02-23T06:32:40.229Z,21.12
2023-02-23T06:35:08.103Z,20.94
2023-02-23T06:37:35.386Z,21.22
2023-02-23T06:40:03.060Z,20.42
2023-02-23T06:42:29.781Z,20.59
2023-02-23T06:44:58.463Z,20.86
2023-02-23T06:47:26.055Z,20.80
2023-02-23T06:49:53.207Z,20.33
2023-02-23T06:52:19.882Z,21.06
2023-02-23T06:54:46.570Z,22.60
2023-02-23T06:57:13.230Z,21.92
2023-02-23T06:59:39.861Z,21.03
2023-02-23T07:02:06.619Z,21.40
2023-02-23T07:04:34.148Z,21.08
2023-02-23T07:07:01.755Z,21.38
2023-02-23T07:09:30.631Z,22.56
2023-02-23T07:11:57.387Z,23.66
2023-02-23T07:14:27.005Z,23.50
2023-02-23T07:16:56.123Z,22.85
2023-02-23T07:19:22.817Z,22.94
2023-02-23T07:21:49.493Z,24.60
2023-02-23T07:24:16.185Z,25.31
2023-02-23T07:26:43.543Z,24.93
2023-02-23T07:29:11.075Z,46.40
2023-02-23T07:31:38.046Z,34.74
2023-02-23T07:34:04.774Z,27.60
2023-02-23T07:36:31.892Z,25.61
2023-02-23T07:38:58.558Z,26.07
2023-02-23T07:41:25.229Z,25.33
2023-02-23T07:43:52.684Z,25.01
2023-02-23T07:46:20.239Z,24.74
2023-02-23T07:48:47.858Z,24.70
2023-02-23T07:51:15.460Z,25.36
2023-02-23T07:53:43.048Z,24.40
2023-02-23T07:56:11.662Z,24.59
2023-02-23T07:58:42.067Z,25.61
2023-02-23T08:01:09.888Z,25.41
2023-02-23T08:03:37.432Z,24.27
2023-02-23T08:06:05.042Z,25.90
2023-02-23T08:08:32.629Z,25.49
2023-02-23T08:11:02.173Z,24.86
2023-02-23T08:13:29.223Z,25.28
2023-02-23T08:15:55.913Z,24.54
2023-02-23T08:18:22.625Z,24.25
2023-02-23T08:20:50.583Z,23.67
2023-02-23T08:23:19.805Z,23.59
2023-02-23T08:25:47.836Z,23.19
2023-02-23T08:28:15.404Z,24.10
2023-02-23T08:30:43.098Z,23.25
2023-02-23T08:33:10.576Z,22.25
2023-02-23T08:35:38.166Z,21.63
2023-02-23T08:38:05.761Z,20.47
2023-02-23T08:40:33.350Z,21.37
2023-02-23T08:43:00.969Z,20.84
2023-02-23T08:45:28.561Z,19.91
2023-02-23T08:47:56.185Z,19.57
2023-02-23T08:50:27.404Z,20.05
2023-02-23T08:52:55.365Z,20.44
2023-02-23T08:55:22.943Z,20.36
2023-02-23T08:57:50.570Z,19.75
2023-02-23T09:00:18.118Z,19.19
2023-02-23T09:02:45.713Z,19.26
2023-02-23T09:05:13.387Z,19.36
2023-02-23T09:07:40.900Z,19.77
2023-02-23T09:10:08.496Z,20.25
2023-02-23T09:12:36.085Z,20.10
2023-02-23T09:15:03.653Z,19.43
2023-02-23T09:17:31.299Z,19.21
2023-02-23T09:19:59.846Z,18.90
2023-02-23T09:22:27.448Z,19.54
2023-02-23T09:24:55.055Z,19.60
2023-02-23T09:27:22.638Z,19.33
2023-02-23T09:29:51.223Z,19.69
2023-02-23T09:32:18.956Z,19.71
2023-02-23T09:34:46.444Z,19.13
2023-02-23T09:37:14.032Z,18.22
2023-02-23T09:39:41.597Z,18.25
2023-02-23T09:42:31.020Z,17.32
2023-02-23T09:45:16.648Z,18.10
2023-02-23T09:47:55.596Z,18.43
2023-02-23T09:50:25.002Z,18.15
2023-02-23T09:52:57.107Z,19.18
2023-02-23T09:55:26.429Z,19.26
2023-02-23T09:57:54.012Z,18.80
2023-02-23T10:00:25.614Z,19.32
2023-02-23T10:03:27.384Z,19.29
2023-02-23T10:05:56.966Z,18.99
2023-02-23T10:08:51.648Z,18.96
2023-02-23T10:11:21.347Z,19.57
2023-02-23T10:13:55.885Z,18.70
2023-02-23T10:16:25.485Z,19.35
2023-02-23T10:18:55.089Z,20.28
2023-02-23T10:21:31.722Z,20.59
2023-02-23T10:24:12.365Z,20.93
2023-02-23T10:26:42.971Z,20.85
2023-02-23T10:29:23.629Z,20.45
2023-02-23T10:31:53.352Z,20.15
2023-02-23T10:34:21.847Z,20.56
2023-02-23T10:36:53.446Z,19.58
2023-02-23T10:39:21.035Z,20.91
2023-02-23T10:41:48.608Z,20.50
2023-02-23T10:44:20.491Z,20.91
2023-02-23T10:46:55.872Z,19.97
2023-02-23T10:49:24.654Z,20.16
2023-02-23T10:51:52.059Z,18.65
2023-02-23T10:54:37.928Z,19.01
2023-02-23T10:57:05.614Z,20.29
2023-02-23T10:59:32.258Z,20.21
2023-02-23T11:02:02.468Z,19.20
2023-02-23T11:04:30.788Z,19.33
2023-02-23T11:07:18.448Z,19.86
2023-02-23T11:09:47.823Z,20.69
2023-02-23T11:12:41.391Z,19.38
2023-02-23T11:15:32.157Z,19.29
2023-02-23T11:18:04.445Z,20.52
2023-02-23T11:20:35.534Z,20.59
2023-02-23T11:23:14.722Z,20.12
2023-02-23T11:25:45.124Z,21.24
2023-02-23T11:28:33.372Z,20.59
2023-02-23T11:31:20.940Z,20.96
2023-02-23T11:33:47.889Z,20.51
2023-02-23T11:36:14.507Z,20.71
2023-02-23T11:38:41.158Z,21.09
2023-02-23T11:41:21.641Z,21.14
2023-02-23T11:43:52.230Z,20.83
2023-02-23T11:46:20.433Z,20.14
2023-02-23T11:49:01.763Z,20.37
2023-02-23T11:51:31.996Z,20.89
2023-02-23T11:53:58.654Z,19.86
2023-02-23T11:56:25.646Z,19.33
2023-02-23T11:59:13.842Z,20.11
2023-02-23T12:01:47.803Z,20.45
2023-02-23T12:04:29.312Z,20.49
2023-02-23T12:07:17.980Z,21.06
2023-02-23T12:09:45.134Z,20.30
2023-02-23T12:12:14.777Z,20.46
2023-02-23T12:14:46.907Z,20.36
2023-02-23T12:17:16.484Z,19.53
2023-02-23T12:20:20.359Z,19.96
2023-02-23T12:22:55.617Z,21.07
2023-02-23T12:25:28.662Z,21.36
2023-02-23T12:28:18.931Z,19.88
2023-02-23T12:30:56.062Z,23.12
2023-02-23T12:33:34.869Z,24.52
2023-02-23T12:36:37.767Z,21.76
2023-02-23T12:39:28.520Z,19.94
2023-02-23T12:41:59.948Z,21.28
2023-02-23T12:44:30.176Z,20.74
2023-02-23T12:46:57.203Z,20.09
2023-02-23T12:49:44.526Z,19.05
2023-02-23T12:52:32.204Z,20.70
2023-02-23T12:54:59.827Z,19.95
2023-02-23T12:57:38.458Z,20.78
2023-02-23T13:00:11.919Z,19.60
2023-02-23T13:02:47.676Z,20.31
2023-02-23T13:05:21.291Z,19.84
2023-02-23T13:08:17.994Z,21.53
2023-02-23T13:10:47.592Z,20.85
2023-02-23T13:13:26.232Z,20.93
2023-02-23T13:16:00.203Z,20.07
2023-02-23T13:19:05.083Z,20.48
2023-02-23T13:21:52.332Z,18.74
2023-02-23T13:24:50.005Z,19.62
2023-02-23T13:27:46.719Z,19.42
2023-02-23T13:30:14.361Z,23.35
2023-02-23T13:32:41.938Z,23.71
2023-02-23T13:35:15.570Z,22.73
2023-02-23T13:37:46.630Z,22.33
2023-02-23T13:40:22.793Z,21.50
2023-02-23T13:43:24.352Z,21.01
2023-02-23T13:46:06.190Z,22.71
2023-02-23T13:48:57.325Z,22.82
2023-02-23T13:51:38.515Z,21.91
2023-02-23T13:54:15.168Z,22.42
2023-02-23T13:56:49.751Z,23.09
2023-02-23T13:59:24.425Z,23.30
2023-02-23T14:01:53.191Z,23.04
2023-02-23T14:04:28.603Z,22.99
2023-02-23T14:07:21.446Z,22.58
2023-02-23T14:09:56.983Z,22.41
2023-02-23T14:12:25.566Z,22.96
2023-02-23T14:14:53.183Z,22.81
2023-02-23T14:17:20.760Z,23.49
2023-02-23T14:19:57.409Z,23.89
2023-02-23T14:22:26.498Z,23.18
2023-02-23T14:25:34.777Z,23.51
2023-02-23T14:28:04.364Z,22.84
2023-02-23T14:30:45.102Z,23.01
2023-02-23T14:33:43.730Z,23.01
2023-02-23T14:36:23.390Z,22.86
2023-02-23T14:38:57.047Z,23.89
2023-02-23T14:41:31.656Z,22.82
2023-02-23T14:44:28.473Z,23.47
2023-02-23T14:47:02.007Z,23.88
2023-02-23T14:49:32.350Z,23.99
2023-02-23T14:52:05.212Z,22.98
2023-02-23T14:54:32.890Z,23.35
2023-02-23T14:57:01.239Z,23.53
2023-02-23T14:59:29.949Z,23.75
2023-02-23T15:01:59.684Z,22.98
2023-02-23T15:04:27.290Z,22.66
2023-02-23T15:06:58.809Z,22.61
2023-02-23T15:09:30.426Z,23.22
2023-02-23T15:11:57.082Z,23.89
2023-02-23T15:14:28.592Z,24.19
2023-02-23T15:16:55.736Z,23.72
2023-02-23T15:19:23.386Z,22.99
2023-02-23T15:21:51.776Z,23.91
2023-02-23T15:24:21.970Z,23.90
2023-02-23T15:26:48.618Z,24.75
2023-02-23T15:29:16.825Z,24.74
2023-02-23T15:31:45.859Z,25.10
2023-02-23T15:34:12.681Z,25.23
2023-02-23T15:36:39.360Z,25.06
2023-02-23T15:39:06.145Z,25.12
2023-02-23T15:41:37.021Z,24.38
2023-02-23T15:44:09.498Z,25.73
2023-02-23T15:46:36.151Z,25.39
2023-02-23T15:49:03.959Z,25.97
2023-02-23T15:51:40.354Z,25.85
2023-02-23T15:54:10.916Z,26.03
2023-02-23T15:56:37.611Z,26.05
2023-02-23T15:59:13.440Z,25.82
2023-02-23T16:01:44.341Z,24.94
2023-02-23T16:04:17.470Z,25.16
2023-02-23T16:06:54.966Z,25.77
2023-02-23T16:09:22.071Z,25.57
2023-02-23T16:12:02.414Z,26.17
2023-02-23T16:14:51.162Z,26.39
2023-02-23T16:17:45.266Z,25.82
2023-02-23T16:20:14.071Z,25.26
2023-02-23T16:22:40.848Z,25.40
2023-02-23T16:25:10.967Z,25.12
2023-02-23T16:27:37.740Z,25.45
2023-02-23T16:30:20.546Z,24.69
2023-02-23T16:32:47.346Z,23.48
2023-02-23T16:35:21.148Z,24.73
2023-02-23T16:38:12.836Z,24.72
2023-02-23T16:40:40.744Z,24.14
2023-02-23T16:43:07.406Z,23.79
2023-02-23T16:45:34.308Z,24.50
2023-02-23T16:48:01.015Z,24.43
2023-02-23T16:50:28.182Z,25.63
2023-02-23T16:52:54.962Z,25.26
2023-02-23T16:55:26.997Z,25.72
2023-02-23T16:58:00.651Z,25.86
2023-02-23T17:00:30.243Z,26.35
2023-02-23T17:02:57.174Z,24.03
2023-02-23T17:05:24.487Z,23.22
2023-02-23T17:07:51.483Z,24.15
2023-02-23T17:10:22.712Z,25.22
2023-02-23T17:12:49.357Z,25.07
2023-02-23T17:15:17.256Z,25.33
2023-02-23T17:17:43.917Z,25.12
2023-02-23T17:20:11.117Z,24.12
2023-02-23T17:22:37.755Z,25.06
2023-02-23T17:25:04.640Z,23.92
2023-02-23T17:27:31.302Z,24.38
2023-02-23T17:29:57.965Z,25.28
2023-02-23T17:32:24.726Z,25.11
2023-02-23T17:34:51.410Z,23.59
2023-02-23T17:37:18.282Z,25.04
2023-02-23T17:39:44.925Z,24.94
2023-02-23T17:42:11.570Z,23.99
2023-02-23T17:44:38.274Z,24.60
2023-02-23T17:47:05.133Z,24.28
2023-02-23T17:49:32.126Z,26.27
2023-02-23T17:51:59.081Z,31.86
2023-02-23T17:54:26.263Z,26.04
2023-02-23T17:56:53.863Z,25.88
2023-02-23T17:59:20.565Z,25.92
2023-02-23T18:01:48.571Z,26.87
2023-02-23T18:04:16.655Z,28.31
2023-02-23T18:06:44.265Z,27.77
2023-02-23T18:09:11.898Z,28.00
2023-02-23T18:11:39.528Z,27.70
2023-02-23T18:14:07.125Z,28.33
2023-02-23T18:16:41.889Z,26.77
2023-02-23T18:19:09.363Z,26.14
2023-02-23T18:21:36.945Z,25.83
2023-02-23T18:24:04.538Z,27.87
2023-02-23T18:26:32.173Z,27.24
2023-02-23T18:28:59.784Z,25.60
2023-02-23T18:31:27.594Z,26.19
2023-02-23T18:33:54.294Z,26.12
2023-02-23T18:36:28.215Z,26.64
2023-02-23T18:38:55.194Z,25.50
2023-02-23T18:41:21.961Z,25.41
2023-02-23T18:43:48.631Z,24.95
2023-02-23T18:46:15.446Z,25.08
2023-02-23T18:48:42.231Z,25.22
2023-02-23T18:51:08.970Z,24.85
2023-02-23T18:53:35.822Z,24.89
2023-02-23T18:56:10.940Z,24.03
2023-02-23T18:58:39.549Z,24.83
2023-02-23T19:01:13.263Z,25.24
2023-02-23T19:03:39.967Z,24.57
2023-02-23T19:06:08.730Z,24.89
2023-02-23T19:08:36.304Z,25.05
2023-02-23T19:11:04.039Z,23.82
2023-02-23T19:13:31.680Z,24.06
2023-02-23T19:16:04.471Z,24.14
2023-02-23T19:18:32.132Z,23.28
2023-02-23T19:20:59.734Z,22.36
2023-02-23T19:23:26.385Z,18.65
2023-02-23T19:25:53.046Z,18.08
2023-02-23T19:28:19.736Z,18.01
2023-02-23T19:30:48.407Z,21.73
2023-02-23T19:33:16.058Z,24.54
2023-02-23T19:35:43.576Z,25.54
2023-02-23T19:38:13.114Z,26.11
2023-02-23T19:40:41.899Z,25.62
2023-02-23T19:43:12.510Z,26.31
2023-02-23T19:45:42.123Z,25.11
2023-02-23T19:48:09.719Z,22.35
2023-02-23T19:50:37.409Z,19.27
2023-02-23T19:53:04.986Z,18.57
2023-02-23T19:55:32.638Z,18.36
2023-02-23T19:58:00.202Z,18.14
2023-02-23T20:00:27.098Z,17.51
2023-02-23T20:02:53.745Z,17.12
2023-02-23T20:05:21.464Z,16.93
2023-02-23T20:07:48.876Z,17.11
2023-02-23T20:10:16.508Z,16.64
2023-02-23T20:12:44.092Z,16.36
2023-02-23T20:15:12.680Z,16.94
2023-02-23T20:17:40.313Z,17.69
2023-02-23T20:20:07.556Z,18.92
2023-02-23T20:22:34.460Z,20.70
2023-02-23T20:25:03.117Z,20.54
2023-02-23T20:27:34.697Z,20.32
2023-02-23T20:30:03.353Z,20.01
2023-02-23T20:32:32.053Z,19.36
2023-02-23T20:34:59.120Z,19.06
2023-02-23T20:37:26.200Z,19.29
2023-02-23T20:39:54.721Z,19.99
2023-02-23T20:42:22.345Z,19.41
2023-02-23T20:44:52.038Z,19.16
2023-02-23T20:47:20.580Z,19.63
2023-02-23T20:49:48.148Z,19.41
2023-02-23T20:52:15.736Z,19.70
2023-02-23T20:54:43.353Z,18.93
2023-02-23T20:57:11.947Z,18.42
2023-02-23T20:59:38.640Z,17.62
2023-02-23T21:02:05.646Z,17.87
2023-02-23T21:04:32.360Z,17.72
2023-02-23T21:06:59.326Z,17.98
2023-02-23T21:09:25.978Z,18.01
2023-02-23T21:11:52.640Z,16.81
2023-02-23T21:14:19.321Z,15.46
2023-02-23T21:16:45.994Z,15.55
2023-02-23T21:19:13.584Z,14.62
2023-02-23T21:21:41.285Z,14.71
2023-02-23T21:24:08.320Z,15.00
2023-02-23T21:26:35.091Z,14.68
2023-02-23T21:29:01.933Z,14.98
2023-02-23T21:31:28.689Z,14.42
2023-02-23T21:33:55.401Z,14.09
2023-02-23T21:36:22.044Z,14.06
2023-02-23T21:38:48.716Z,13.07
2023-02-23T21:41:15.356Z,13.13
2023-02-23T21:43:42.876Z,12.50
2023-02-23T21:46:13.416Z,12.94
2023-02-23T21:48:40.278Z,13.15
2023-02-23T21:51:11.146Z,13.15
2023-02-23T21:53:37.820Z,13.57
2023-02-23T21:56:11.911Z,14.01
2023-02-23T21:58:46.521Z,13.76
2023-02-23T22:01:14.808Z,14.41
2023-02-23T22:03:42.420Z,14.39
2023-02-23T22:06:09.099Z,14.60
2023-02-23T22:08:35.780Z,14.74
2023-02-23T22:11:07.488Z,13.95
2023-02-23T22:13:34.152Z,13.88
2023-02-23T22:16:00.985Z,13.89
2023-02-23T22:18:27.648Z,13.93
2023-02-23T22:20:58.564Z,14.15
2023-02-23T22:23:25.612Z,14.00
2023-02-23T22:25:52.280Z,13.25
2023-02-23T22:28:18.979Z,13.71
2023-02-23T22:30:45.689Z,14.07
2023-02-23T22:33:12.449Z,14.30
2023-02-23T22:35:40.065Z,13.50
2023-02-23T22:38:06.740Z,13.66
2023-02-23T22:40:34.178Z,14.04
2023-02-23T22:43:00.837Z,14.52
2023-02-23T22:45:27.499Z,13.97
2023-02-23T22:47:54.138Z,14.43
2023-02-23T22:50:20.803Z,14.37
2023-02-23T22:52:47.447Z,14.31
2023-02-23T22:55:14.081Z,13.50
2023-02-23T22:57:40.704Z,14.62
2023-02-23T23:00:09.382Z,14.08
2023-02-23T23:02:36.059Z,14.40
2023-02-23T23:05:02.710Z,14.13
2023-02-23T23:07:30.547Z,13.08
2023-02-23T23:09:58.479Z,13.82
2023-02-23T23:12:25.587Z,14.16
2023-02-23T23:14:52.252Z,13.34
2023-02-23T23:17:18.960Z,13.06
2023-02-23T23:19:45.636Z,12.96
2023-02-23T23:22:12.313Z,12.86
2023-02-23T23:24:38.977Z,13.61
2023-02-23T23:27:05.622Z,12.99
2023-02-23T23:29:32.315Z,13.06
2023-02-23T23:31:59.179Z,13.79
2023-02-23T23:34:26.266Z,13.52
2023-02-23T23:36:53.090Z,13.73
2023-02-23T23:39:21.327Z,12.97
2023-02-23T23:41:48.459Z,13.11
2023-02-23T23:44:20.093Z,13.40
2023-02-23T23:46:46.873Z,14.31
2023-02-23T23:49:21.124Z,13.89
2023-02-23T23:51:49.371Z,14.03
2023-02-23T23:54:23.042Z,14.25
2023-02-23T23:56:50.004Z,14.40
2023-02-23T23:59:17.694Z,14.75
